»·PEaware :: N8573X KMRY-KAUN

N8573X :: KMRY-KAUN

FLIGHT INFORMATION

Flight Status: Arrived
Operator: Privately registered:
United States
More flights under this callsign
Pilot: Tommy H. (35970)
Aircraft: CESSNA 172 SKYHAWK
(C172)
More flights by this aircraft type
Origin: KMRY Monterey Peninsula
United States
Destination: KAUN Auburn Mun
United States
More flights between these airports :: More routes between these airports
Route: MOD
File this flight plan on PilotEdge
Remarks:
Altitude:
(Current/Filed)
11,500ft
Speed:
(Current/Filed)
115kts
Departed: 24-Aug-21 04:06 PM
Arrived: 24-Aug-21 05:40 PM
Distance/Time
Traveled:
147nm/1:34
Distance/Time
To Go:
Arrived

Flight Plot

Page will automatically refresh every two minutes.

Flight plan parsing failed; only flown route is shown


Map Options




Map Legend


Flown Route
Filed Route
Departure Airport
Arrival Airport
Navaid (VOR, NDB)
Fix

Horizontal Profiles

Position Reports

Time Latitude Longitude Heading Altitude Ground
Speed
24-Aug-21 15:53 36.585496 -121.844809 23 216ft 0kts
24-Aug-21 15:54 36.585496 -121.844809 23 216ft 0kts
24-Aug-21 15:55 36.585496 -121.844809 23 216ft 0kts
24-Aug-21 15:56 36.585496 -121.844809 23 216ft 0kts
24-Aug-21 15:57 36.585496 -121.844809 23 216ft 0kts
24-Aug-21 15:58 36.585496 -121.844809 23 216ft 0kts
24-Aug-21 15:59 36.585496 -121.844809 23 216ft 0kts
24-Aug-21 16:00 36.585289 -121.843490 24 220ft 8kts
24-Aug-21 16:01 36.584545 -121.840041 111 243ft 19kts
24-Aug-21 16:02 36.582709 -121.836009 107 259ft 13kts
24-Aug-21 16:03 36.582697 -121.835856 88 257ft 0kts
24-Aug-21 16:04 36.582697 -121.835856 88 257ft 0kts
24-Aug-21 16:05 36.582807 -121.834752 89 248ft 2kts
24-Aug-21 16:06 36.587563 -121.844651 293 488ft 80kts
24-Aug-21 16:07 36.603439 -121.847521 34 1271ft 86kts
24-Aug-21 16:08 36.623810 -121.830863 28 2022ft 92kts
24-Aug-21 16:09 36.643611 -121.810821 36 2791ft 92kts
24-Aug-21 16:10 36.663786 -121.790416 32 3504ft 94kts
24-Aug-21 16:11 36.684416 -121.770608 36 4274ft 95kts
24-Aug-21 16:12 36.704128 -121.748820 31 4993ft 96kts
24-Aug-21 16:13 36.727384 -121.732219 27 5664ft 97kts
24-Aug-21 16:14 36.751263 -121.716226 33 6264ft 100kts
24-Aug-21 16:15 36.774791 -121.699144 29 6846ft 100kts
24-Aug-21 16:16 36.797309 -121.679072 34 7382ft 101kts
24-Aug-21 16:16 36.817258 -121.664155 25 7797ft 101kts
24-Aug-21 16:17 36.840751 -121.644457 36 8256ft 102kts
24-Aug-21 16:19 36.868313 -121.621180 33 8776ft 103kts
24-Aug-21 16:20 36.891715 -121.600290 32 9180ft 104kts
24-Aug-21 16:21 36.915487 -121.579441 32 9559ft 105kts
24-Aug-21 16:21 36.935536 -121.561948 32 9856ft 105kts
24-Aug-21 16:22 36.959532 -121.542580 34 10140ft 100kts
24-Aug-21 16:23 36.981295 -121.522693 32 10621ft 94kts
24-Aug-21 16:25 37.006855 -121.500112 32 11080ft 97kts
24-Aug-21 16:26 37.029051 -121.480644 31 11466ft 97kts
24-Aug-21 16:26 37.049287 -121.462864 33 11509ft 115kts
24-Aug-21 16:27 37.076229 -121.439082 33 11507ft 120kts
24-Aug-21 16:28 37.103536 -121.415148 33 11553ft 118kts
24-Aug-21 16:29 37.130665 -121.391439 33 11570ft 120kts
24-Aug-21 16:30 37.158153 -121.367373 33 11570ft 120kts
24-Aug-21 16:31 37.185646 -121.343298 33 11570ft 120kts
24-Aug-21 16:32 37.213107 -121.319222 33 11570ft 120kts
24-Aug-21 16:33 37.240478 -121.295222 33 11570ft 120kts
24-Aug-21 16:34 37.267999 -121.271064 33 11570ft 120kts
24-Aug-21 16:35 37.295315 -121.247065 33 11570ft 120kts
24-Aug-21 16:36 37.322602 -121.223067 33 11570ft 120kts
24-Aug-21 16:37 37.349663 -121.199246 33 11570ft 120kts
24-Aug-21 16:38 37.376212 -121.175856 33 11570ft 120kts
24-Aug-21 16:39 37.401763 -121.153327 33 11570ft 120kts
24-Aug-21 16:40 37.427586 -121.130536 33 11570ft 120kts
24-Aug-21 16:41 37.452650 -121.108398 33 11570ft 120kts
24-Aug-21 16:42 37.477619 -121.086326 33 11570ft 120kts
24-Aug-21 16:43 37.502359 -121.064410 34 11569ft 119kts
24-Aug-21 16:44 37.525039 -121.041474 35 11571ft 117kts
24-Aug-21 16:45 37.548323 -121.020458 33 11570ft 117kts
24-Aug-21 16:46 37.571449 -121.000452 32 11570ft 117kts
24-Aug-21 16:47 37.594509 -120.980750 32 11570ft 117kts
24-Aug-21 16:48 37.617077 -120.961532 32 11570ft 117kts
24-Aug-21 16:49 37.640724 -120.946366 357 11579ft 116kts
24-Aug-21 16:50 37.667842 -120.950745 347 11570ft 117kts
24-Aug-21 16:51 37.695574 -120.955824 352 11570ft 117kts
24-Aug-21 16:52 37.723489 -120.959253 353 11570ft 117kts
24-Aug-21 16:53 37.752014 -120.962217 354 11570ft 117kts
24-Aug-21 16:54 37.781124 -120.965079 354 11570ft 117kts
24-Aug-21 16:55 37.811108 -120.967979 354 11570ft 117kts
24-Aug-21 16:56 37.841422 -120.970898 354 11570ft 117kts
24-Aug-21 16:57 37.872636 -120.973901 354 11570ft 117kts
24-Aug-21 16:58 37.904369 -120.976957 354 11570ft 117kts
24-Aug-21 16:59 37.936567 -120.980059 354 11570ft 117kts
24-Aug-21 17:00 37.968767 -120.983164 354 11570ft 117kts
24-Aug-21 17:01 38.000670 -120.986243 354 11570ft 117kts
24-Aug-21 17:02 38.032522 -120.989321 354 11570ft 117kts
24-Aug-21 17:03 38.063696 -120.992335 354 11570ft 117kts
24-Aug-21 17:04 38.091552 -120.995031 354 11570ft 117kts
24-Aug-21 17:05 38.114463 -120.997249 354 11570ft 117kts
24-Aug-21 17:06 38.145794 -121.000286 354 11570ft 117kts
24-Aug-21 17:07 38.178020 -121.003411 354 11570ft 117kts
24-Aug-21 17:08 38.210217 -121.006535 354 11570ft 117kts
24-Aug-21 17:09 38.242571 -121.009729 354 11570ft 117kts
24-Aug-21 17:10 38.275073 -121.012941 354 11570ft 117kts
24-Aug-21 17:11 38.307221 -121.016115 354 11570ft 117kts
24-Aug-21 17:12 38.336705 -121.019030 354 11570ft 117kts
24-Aug-21 17:13 38.363834 -121.021710 354 11570ft 117kts
24-Aug-21 17:14 38.396863 -121.024962 355 11567ft 112kts
24-Aug-21 17:15 38.429303 -121.027681 355 10767ft 115kts
24-Aug-21 17:16 38.461921 -121.030843 355 9844ft 115kts
24-Aug-21 17:17 38.494188 -121.034042 355 8930ft 115kts
24-Aug-21 17:18 38.526462 -121.037248 355 8017ft 115kts
24-Aug-21 17:19 38.555568 -121.040144 355 7192ft 115kts
24-Aug-21 17:20 38.585850 -121.043158 355 6334ft 115kts
24-Aug-21 17:21 38.614130 -121.045974 355 5532ft 114kts
24-Aug-21 17:22 38.642173 -121.048770 355 4734ft 114kts
24-Aug-21 17:23 38.667423 -121.051303 355 4202ft 101kts
24-Aug-21 17:24 38.690119 -121.053594 355 3776ft 95kts
24-Aug-21 17:25 38.713596 -121.055955 355 3319ft 92kts
24-Aug-21 17:26 38.733288 -121.057972 354 3119ft 71kts
24-Aug-21 17:27 38.754084 -121.064494 330 3012ft 94kts
24-Aug-21 17:28 38.777310 -121.083257 318 3094ft 113kts
24-Aug-21 17:29 38.796406 -121.112570 311 3302ft 106kts
24-Aug-21 17:30 38.820698 -121.130319 356 3415ft 107kts
24-Aug-21 17:31 38.850343 -121.128829 16 3367ft 109kts
24-Aug-21 17:32 38.878778 -121.115211 18 2991ft 110kts
24-Aug-21 17:33 38.907105 -121.106251 12 2371ft 103kts
24-Aug-21 17:34 38.933303 -121.098894 32 2491ft 101kts
24-Aug-21 17:35 38.934187 -121.065674 102 2534ft 92kts
24-Aug-21 17:36 38.939045 -121.045565 21 2329ft 68kts
24-Aug-21 17:37 38.956894 -121.043634 294 2304ft 74kts
24-Aug-21 17:38 38.956014 -121.067581 261 1703ft 68kts
24-Aug-21 17:39 38.954658 -121.082381 213 1503ft 7kts
24-Aug-21 17:40 38.954445 -121.080991 84 1509ft 5kts
24-Aug-21 17:41 38.953862 -121.079103 171 1518ft 8kts
24-Aug-21 17:42 38.953156 -121.079785 87 1511ft 0kts

Navigation Log

Ident Type
Flight plan parsing failed, navigation log unavailable